createdAt,value
2022-08-09T00:01:54.955Z,6.13
2022-08-09T00:06:16.406Z,5.30
2022-08-09T00:08:32.023Z,5.68
2022-08-09T00:12:03.738Z,5.13
2022-08-09T00:15:07.113Z,4.75
2022-08-09T00:18:19.898Z,6.00
2022-08-09T00:21:27.737Z,5.30
2022-08-09T00:24:33.976Z,4.82
2022-08-09T00:27:43.131Z,4.80
2022-08-09T00:30:48.982Z,4.78
2022-08-09T00:33:56.306Z,4.40
2022-08-09T00:37:02.567Z,3.95
2022-08-09T00:40:17.065Z,3.92
2022-08-09T00:44:11.019Z,4.15
2022-08-09T00:46:57.760Z,3.80
2022-08-09T00:50:14.213Z,3.85
2022-08-09T00:53:24.263Z,3.58
2022-08-09T00:59:47.075Z,4.47
2022-08-09T01:03:50.751Z,4.18
2022-08-09T01:07:37.712Z,5.00
2022-08-09T01:11:15.016Z,4.57
2022-08-09T01:14:30.191Z,4.28
2022-08-09T01:17:48.138Z,3.80
2022-08-09T01:21:00.341Z,4.15
2022-08-09T01:24:19.019Z,4.60
2022-08-09T01:27:26.534Z,4.20
2022-08-09T01:30:52.207Z,4.50
2022-08-09T01:34:03.471Z,4.15
2022-08-09T01:37:11.494Z,4.30
2022-08-09T01:40:23.009Z,4.45
2022-08-09T01:43:50.097Z,4.85
2022-08-09T01:46:59.891Z,4.28
2022-08-09T01:50:06.539Z,4.80
2022-08-09T01:53:20.003Z,4.22
2022-08-09T01:56:31.014Z,4.75
2022-08-09T01:59:41.065Z,3.90
2022-08-09T02:02:59.544Z,4.35
2022-08-09T02:06:08.482Z,3.92
2022-08-09T02:09:17.013Z,4.07
2022-08-09T02:12:25.929Z,4.43
2022-08-09T02:15:36.310Z,3.88
2022-08-09T02:18:54.730Z,3.72
2022-08-09T02:22:05.907Z,3.90
2022-08-09T02:25:21.140Z,3.80
2022-08-09T02:28:40.218Z,4.25
2022-08-09T02:31:50.338Z,4.45
2022-08-09T02:35:03.636Z,4.00
2022-08-09T02:38:29.486Z,3.65
2022-08-09T02:41:43.783Z,4.00
2022-08-09T02:44:53.175Z,3.88
2022-08-09T02:48:12.142Z,4.00
2022-08-09T02:51:28.149Z,3.17
2022-08-09T02:54:54.248Z,3.95
2022-08-09T02:58:32.394Z,4.32
2022-08-09T03:01:58.585Z,4.25
2022-08-09T03:04:59.345Z,4.47
2022-08-09T03:08:07.679Z,5.05
2022-08-09T03:12:04.365Z,5.40
2022-08-09T03:14:44.389Z,6.40
2022-08-09T03:17:53.931Z,4.72
2022-08-09T03:21:05.959Z,5.65
2022-08-09T03:24:11.293Z,5.75
2022-08-09T03:27:45.094Z,4.72
2022-08-09T03:30:52.859Z,5.22
2022-08-09T03:33:59.418Z,4.38
2022-08-09T03:37:54.869Z,4.65
2022-08-09T03:40:31.147Z,4.50
2022-08-09T03:43:36.571Z,4.20
2022-08-09T03:46:43.350Z,4.32
2022-08-09T03:49:58.036Z,4.18
2022-08-09T03:53:07.505Z,3.95
2022-08-09T03:56:15.986Z,4.05
2022-08-09T03:59:32.969Z,4.03
2022-08-09T04:02:52.675Z,3.92
2022-08-09T04:05:59.176Z,4.20
2022-08-09T04:09:41.467Z,3.83
2022-08-09T04:12:44.968Z,3.50
2022-08-09T04:16:19.243Z,4.00
2022-08-09T04:19:42.677Z,3.92
2022-08-09T04:22:44.196Z,3.70
2022-08-09T04:25:52.054Z,3.95
2022-08-09T04:29:01.376Z,4.20
2022-08-09T04:32:08.797Z,4.30
2022-08-09T04:35:14.289Z,4.43
2022-08-09T04:38:20.413Z,3.78
2022-08-09T04:41:33.111Z,3.85
2022-08-09T04:44:39.339Z,4.55
2022-08-09T04:48:00.923Z,4.35
2022-08-09T04:51:08.605Z,4.88
2022-08-09T04:54:15.387Z,4.30
2022-08-09T04:57:24.512Z,3.80
2022-08-09T05:00:31.795Z,3.63
2022-08-09T05:03:42.953Z,3.65
2022-08-09T05:06:50.572Z,3.53
2022-08-09T05:09:56.665Z,3.80
2022-08-09T05:13:03.880Z,3.35
2022-08-09T05:16:10.748Z,3.30
2022-08-09T05:19:24.310Z,3.67
2022-08-09T05:22:33.181Z,4.18
2022-08-09T05:25:40.409Z,3.08
2022-08-09T05:28:47.348Z,3.50
2022-08-09T05:31:56.805Z,3.50
2022-08-09T05:35:03.373Z,3.38
2022-08-09T05:38:09.110Z,3.45
2022-08-09T05:41:27.716Z,3.60
2022-08-09T05:44:34.756Z,3.47
2022-08-09T05:47:51.568Z,3.40
2022-08-09T05:51:16.537Z,3.10
2022-08-09T05:54:25.036Z,3.60
2022-08-09T05:57:55.135Z,3.58
2022-08-09T06:00:56.797Z,3.13
2022-08-09T06:04:05.537Z,3.20
2022-08-09T06:07:11.790Z,3.38
2022-08-09T06:10:38.804Z,4.00
2022-08-09T06:13:45.818Z,3.47
2022-08-09T06:16:53.223Z,3.60
2022-08-09T06:19:58.845Z,3.08
2022-08-09T06:23:04.457Z,3.63
2022-08-09T06:26:12.044Z,3.42
2022-08-09T06:29:17.644Z,3.25
2022-08-09T06:32:59.007Z,3.05
2022-08-09T06:35:57.810Z,2.90
2022-08-09T06:39:08.919Z,4.40
2022-08-09T06:42:24.898Z,2.63
2022-08-09T06:46:05.267Z,3.33
2022-08-09T06:49:01.637Z,2.80
2022-08-09T06:52:07.903Z,2.95
2022-08-09T06:55:26.844Z,2.95
2022-08-09T07:00:47.330Z,2.67
2022-08-09T07:02:03.916Z,3.15
2022-08-09T07:05:10.742Z,2.58
2022-08-09T07:08:17.907Z,2.78
2022-08-09T07:11:25.618Z,3.17
2022-08-09T07:14:31.223Z,3.03
2022-08-09T07:17:39.828Z,3.08
2022-08-09T07:20:59.062Z,3.10
2022-08-09T07:24:06.476Z,2.40
2022-08-09T07:27:33.669Z,2.75
2022-08-09T07:30:39.653Z,2.83
2022-08-09T07:33:52.502Z,3.67
2022-08-09T07:37:02.772Z,2.90
2022-08-09T07:40:09.987Z,3.35
2022-08-09T07:43:18.698Z,2.83
2022-08-09T07:46:25.296Z,2.75
2022-08-09T07:49:33.589Z,2.85
2022-08-09T07:52:42.986Z,2.53
2022-08-09T07:56:03.525Z,2.42
2022-08-09T07:59:24.902Z,2.50
2022-08-09T08:02:32.441Z,2.42
2022-08-09T08:05:39.251Z,3.47
2022-08-09T08:09:05.011Z,2.60
2022-08-09T08:12:28.327Z,2.50
2022-08-09T08:15:37.806Z,2.42
2022-08-09T08:18:44.823Z,2.33
2022-08-09T08:21:53.440Z,2.25
2022-08-09T08:24:59.060Z,3.22
2022-08-09T08:28:05.976Z,2.58
2022-08-09T08:31:15.326Z,2.60
2022-08-09T08:34:21.190Z,3.10
2022-08-09T08:37:41.110Z,2.67
2022-08-09T08:40:49.726Z,2.45
2022-08-09T08:43:59.292Z,2.58
2022-08-09T08:47:12.343Z,2.40
2022-08-09T08:50:20.368Z,2.97
2022-08-09T08:53:36.810Z,2.80
2022-08-09T08:56:43.901Z,2.75
2022-08-09T08:59:54.037Z,2.72
2022-08-09T09:03:11.486Z,2.65
2022-08-09T09:06:22.874Z,2.65
2022-08-09T09:09:58.600Z,2.67
2022-08-09T09:12:57.345Z,2.83
2022-08-09T09:16:03.956Z,2.70
2022-08-09T09:19:22.740Z,2.47
2022-08-09T09:23:01.613Z,2.80
2022-08-09T09:26:12.493Z,2.95
2022-08-09T09:33:15.498Z,3.30
2022-08-09T09:36:23.444Z,2.40
2022-08-09T09:39:54.965Z,2.85
2022-08-09T09:42:57.729Z,2.50
2022-08-09T09:49:50.066Z,2.60
2022-08-09T09:52:57.481Z,2.78
2022-08-09T09:56:04.113Z,3.08
2022-08-09T09:59:13.754Z,2.70
2022-08-09T10:02:23.133Z,2.30
2022-08-09T10:06:03.832Z,2.80
2022-08-09T10:09:01.289Z,3.00
2022-08-09T10:12:14.163Z,2.60
2022-08-09T10:16:08.952Z,2.58
2022-08-09T10:19:04.979Z,2.45
2022-08-09T10:22:10.302Z,2.50
2022-08-09T10:25:16.778Z,2.40
2022-08-09T10:28:28.690Z,2.47
2022-08-09T10:35:02.324Z,2.58
2022-08-09T10:38:34.043Z,3.15
2022-08-09T10:41:36.839Z,2.67
2022-08-09T10:44:45.606Z,2.90
2022-08-09T10:48:30.407Z,2.88
2022-08-09T10:51:55.935Z,2.80
2022-08-09T10:55:27.583Z,2.83
2022-08-09T10:58:37.129Z,2.63
2022-08-09T11:03:16.437Z,3.35
2022-08-09T11:05:24.830Z,2.75
2022-08-09T11:08:47.920Z,2.83
2022-08-09T11:11:58.567Z,3.20
2022-08-09T11:15:19.292Z,2.50
2022-08-09T11:18:46.188Z,2.92
2022-08-09T11:22:10.310Z,2.60
2022-08-09T11:25:45.016Z,2.83
2022-08-09T11:28:55.840Z,2.55
2022-08-09T11:32:02.223Z,3.00
2022-08-09T11:35:49.516Z,2.88
2022-08-09T11:39:03.446Z,3.30
2022-08-09T11:42:14.920Z,2.85
2022-08-09T11:45:41.949Z,3.50
2022-08-09T11:48:53.814Z,3.25
2022-08-09T11:55:53.952Z,3.10
2022-08-09T11:59:03.262Z,2.92
2022-08-09T12:02:34.757Z,2.72
2022-08-09T12:05:47.041Z,2.90
2022-08-09T12:08:56.122Z,4.47
2022-08-09T12:12:12.861Z,2.83
2022-08-09T12:15:49.695Z,2.90
2022-08-09T12:18:55.216Z,2.83
2022-08-09T12:22:04.161Z,2.63
2022-08-09T12:25:14.831Z,2.85
2022-08-09T12:29:10.077Z,2.70
2022-08-09T12:31:58.963Z,3.00
2022-08-09T12:35:10.922Z,2.92
2022-08-09T12:38:38.199Z,2.50
2022-08-09T12:41:47.418Z,3.20
2022-08-09T12:44:57.376Z,2.95
2022-08-09T12:48:19.909Z,3.53
2022-08-09T12:52:00.582Z,3.30
2022-08-09T12:56:11.639Z,3.15
2022-08-09T12:58:28.674Z,2.95
2022-08-09T13:01:36.007Z,3.83
2022-08-09T13:05:02.455Z,3.08
2022-08-09T13:08:40.293Z,3.17
2022-08-09T13:11:49.896Z,3.10
2022-08-09T13:15:08.028Z,3.38
2022-08-09T13:18:17.423Z,2.53
2022-08-09T13:22:37.981Z,2.47
2022-08-09T13:24:54.880Z,2.97
2022-08-09T13:28:18.797Z,3.00
2022-08-09T13:32:20.369Z,3.25
2022-08-09T13:35:34.786Z,3.20
2022-08-09T13:42:11.843Z,3.15
2022-08-09T13:45:18.557Z,2.88
2022-08-09T13:48:25.534Z,2.65
2022-08-09T13:51:35.817Z,2.92
2022-08-09T13:54:41.643Z,2.90
2022-08-09T13:57:53.110Z,2.85
2022-08-09T14:01:03.386Z,3.17
2022-08-09T14:04:13.692Z,2.67
2022-08-09T14:07:19.041Z,3.00
2022-08-09T14:10:37.622Z,2.67
2022-08-09T14:14:22.449Z,2.92
2022-08-09T14:17:22.701Z,2.72
2022-08-09T14:20:29.473Z,3.13
2022-08-09T14:23:40.399Z,3.03
2022-08-09T14:27:01.401Z,3.20
2022-08-09T14:30:36.640Z,2.78
2022-08-09T14:33:38.248Z,2.80
2022-08-09T14:36:45.267Z,2.97
2022-08-09T14:43:00.480Z,3.20
2022-08-09T14:46:57.965Z,2.65
2022-08-09T14:49:34.617Z,2.58
2022-08-09T14:52:50.101Z,2.95
2022-08-09T14:55:56.776Z,3.00
2022-08-09T14:59:02.813Z,2.65
2022-08-09T15:02:09.033Z,2.42
2022-08-09T15:05:18.645Z,2.85
2022-08-09T15:08:24.440Z,2.55
2022-08-09T15:11:30.236Z,2.97
2022-08-09T15:14:38.599Z,2.00
2022-08-09T15:17:51.790Z,2.75
2022-08-09T15:21:56.427Z,2.80
2022-08-09T15:24:27.159Z,2.63
2022-08-09T15:27:48.093Z,2.72
2022-08-09T15:31:09.989Z,2.88
2022-08-09T15:34:33.985Z,2.80
2022-08-09T15:38:03.984Z,3.10
2022-08-09T15:41:09.631Z,2.90
2022-08-09T15:44:15.420Z,3.30
2022-08-09T15:47:31.843Z,2.58
2022-08-09T15:50:52.228Z,2.42
2022-08-09T15:54:12.278Z,2.72
2022-08-09T15:57:35.218Z,2.90
2022-08-09T16:00:49.915Z,3.03
2022-08-09T16:03:56.043Z,2.53
2022-08-09T16:07:05.073Z,2.10
2022-08-09T16:10:38.675Z,2.25
2022-08-09T16:14:03.978Z,2.78
2022-08-09T16:17:03.910Z,1.98
2022-08-09T16:20:12.837Z,2.10
2022-08-09T16:23:19.909Z,2.13
2022-08-09T16:26:33.552Z,2.47
2022-08-09T16:29:50.465Z,2.45
2022-08-09T16:33:10.201Z,2.03
2022-08-09T16:36:18.650Z,2.13
2022-08-09T16:39:25.756Z,2.22
2022-08-09T16:42:31.660Z,3.08
2022-08-09T16:45:44.095Z,2.30
2022-08-09T16:48:59.521Z,2.22
2022-08-09T16:52:10.669Z,2.50
2022-08-09T16:55:18.087Z,2.28
2022-08-09T16:58:23.964Z,2.47
2022-08-09T17:01:33.979Z,2.30
2022-08-09T17:04:41.685Z,2.83
2022-08-09T17:08:43.270Z,2.63
2022-08-09T17:11:13.272Z,2.72
2022-08-09T17:14:27.363Z,2.78
2022-08-09T17:17:50.439Z,3.33
2022-08-09T17:20:57.676Z,3.28
2022-08-09T17:24:27.972Z,3.75
2022-08-09T17:27:28.814Z,3.17
2022-08-09T17:30:35.481Z,3.35
2022-08-09T17:33:40.885Z,3.70
2022-08-09T17:36:53.422Z,3.08
2022-08-09T17:39:59.720Z,4.45
2022-08-09T17:43:32.132Z,3.30
2022-08-09T17:46:33.997Z,2.60
2022-08-09T17:49:54.358Z,3.20
2022-08-09T17:53:04.778Z,2.92
2022-08-09T17:56:29.272Z,3.20
2022-08-09T17:59:42.894Z,2.63
2022-08-09T18:03:18.513Z,3.15
2022-08-09T18:06:31.301Z,2.53
2022-08-09T18:09:41.445Z,3.35
2022-08-09T18:13:43.601Z,2.70
2022-08-09T18:16:13.458Z,3.17
2022-08-09T18:20:54.790Z,3.17
2022-08-09T18:22:51.353Z,3.03
2022-08-09T18:25:58.104Z,2.60
2022-08-09T18:30:42.989Z,2.78
2022-08-09T18:32:30.379Z,3.08
2022-08-09T18:35:58.121Z,2.95
2022-08-09T18:39:03.325Z,3.03
2022-08-09T18:42:09.095Z,2.80
2022-08-09T18:45:21.499Z,2.72
2022-08-09T18:48:42.436Z,2.40
2022-08-09T18:51:55.580Z,3.15
2022-08-09T18:55:05.696Z,2.92
2022-08-09T18:58:31.792Z,3.08
2022-08-09T19:01:46.012Z,2.78
2022-08-09T19:05:03.681Z,3.08
2022-08-09T19:08:19.977Z,2.92
2022-08-09T19:11:27.837Z,2.92
2022-08-09T19:14:43.674Z,2.90
2022-08-09T19:17:54.646Z,3.63
2022-08-09T19:21:02.521Z,3.50
2022-08-09T19:24:33.280Z,3.33
2022-08-09T19:27:35.135Z,5.00
2022-08-09T19:30:44.530Z,4.15
2022-08-09T19:33:51.045Z,5.35
2022-08-09T19:37:00.380Z,3.80
2022-08-09T19:40:06.655Z,3.25
2022-08-09T19:43:16.308Z,3.83
2022-08-09T19:46:50.470Z,3.28
2022-08-09T19:50:06.793Z,2.92
2022-08-09T19:53:26.374Z,3.65
2022-08-09T19:56:34.139Z,3.45
2022-08-09T19:59:59.214Z,3.00
2022-08-09T20:04:07.438Z,3.47
2022-08-09T20:06:42.323Z,3.45
2022-08-09T20:09:51.221Z,3.33
2022-08-09T20:12:57.238Z,3.20
2022-08-09T20:16:37.863Z,3.30
2022-08-09T20:19:47.950Z,3.55
2022-08-09T20:22:59.931Z,4.28
2022-08-09T20:26:06.836Z,3.83
2022-08-09T20:29:18.851Z,4.47
2022-08-09T20:32:33.454Z,4.43
2022-08-09T20:35:40.558Z,4.35
2022-08-09T20:39:28.352Z,5.03
2022-08-09T20:42:17.330Z,4.55
2022-08-09T20:45:57.144Z,4.68
2022-08-09T20:48:50.067Z,4.40
2022-08-09T20:51:55.399Z,5.40
2022-08-09T20:55:10.848Z,5.22
2022-08-09T20:58:20.402Z,5.72
2022-08-09T21:01:34.696Z,4.95
2022-08-09T21:05:51.829Z,4.25
2022-08-09T21:08:23.303Z,5.30
2022-08-09T21:15:12.360Z,5.10
2022-08-09T21:18:24.699Z,4.40
2022-08-09T21:21:53.767Z,4.22
2022-08-09T21:25:16.692Z,4.68
2022-08-09T21:28:34.267Z,5.30
2022-08-09T21:31:49.383Z,4.95
2022-08-09T21:34:56.413Z,5.00
2022-08-09T21:38:03.065Z,5.40
2022-08-09T21:41:09.608Z,5.18
2022-08-09T21:44:33.814Z,5.70
2022-08-09T21:47:42.680Z,5.57
2022-08-09T21:50:51.393Z,4.45
2022-08-09T21:53:57.298Z,4.63
2022-08-09T21:57:04.104Z,4.05
2022-08-09T22:00:25.954Z,4.25
2022-08-09T22:03:32.582Z,4.82
2022-08-09T22:06:42.589Z,4.60
2022-08-09T22:09:48.096Z,5.53
2022-08-09T22:12:55.292Z,6.10
2022-08-09T22:16:01.005Z,5.10
2022-08-09T22:19:59.205Z,5.15
2022-08-09T22:22:36.591Z,4.90
2022-08-09T22:26:06.899Z,4.53
2022-08-09T22:29:10.170Z,4.88
2022-08-09T22:32:29.667Z,5.03
2022-08-09T22:36:02.469Z,5.20
2022-08-09T22:39:03.984Z,5.20
2022-08-09T22:42:20.978Z,5.63
2022-08-09T22:48:11.354Z,5.40
2022-08-09T22:48:54.760Z,5.15
2022-08-09T22:52:05.471Z,6.57
2022-08-09T22:55:22.630Z,7.95
2022-08-09T22:58:33.342Z,8.07
2022-08-09T23:01:41.118Z,9.38
2022-08-09T23:04:53.721Z,10.10
2022-08-09T23:08:27.662Z,9.98
2022-08-09T23:11:36.822Z,9.07
2022-08-09T23:14:42.767Z,9.88
2022-08-09T23:17:48.698Z,9.20
2022-08-09T23:20:54.322Z,8.43
2022-08-09T23:24:06.354Z,8.57
2022-08-09T23:27:12.572Z,8.20
2022-08-09T23:30:18.294Z,8.93
2022-08-09T23:33:24.922Z,9.13
2022-08-09T23:36:30.477Z,8.50
2022-08-09T23:39:36.664Z,7.85
2022-08-09T23:42:42.374Z,9.10
2022-08-09T23:45:49.180Z,9.60
2022-08-09T23:48:54.839Z,9.68
2022-08-09T23:52:00.762Z,10.80
2022-08-09T23:55:06.109Z,11.57
2022-08-09T23:58:27.496Z,12.27
